Time;durP1;ratioP1;P1;durP2;ratioP2;P2;SDS_P1;SDS_P2;PMS_P1;PMS_P2;Temp;Humidity;BMP_temperature;BMP_pressure;BME280_temperature;BME280_humidity;BME280_pressure;Samples;Min_cycle;Max_cycle;Signal;HPM_P1;HPM_P2
2023/11/24 00:00:31;;;;;;;;;10.75;8.00;;;;;-143.90;100.00;74502.44;4925486;28;101761;-72
2023/11/24 00:02:57;;;;;;;;;7.00;7.00;;;;;-143.90;100.00;74496.25;4925709;28;101867;-71
2023/11/24 00:05:25;;;;;;;;;9.50;9.50;;;;;-143.90;100.00;74500.38;4925301;28;103577;-70
2023/11/24 00:07:51;;;;;;;;;8.50;8.00;;;;;-143.90;100.00;74502.44;4927243;28;103005;-71
2023/11/24 00:10:18;;;;;;;;;9.00;8.00;;;;;-143.90;100.00;74508.63;4926049;28;106935;-71
2023/11/24 00:12:46;;;;;;;;;8.00;8.00;;;;;-143.90;100.00;74494.16;4923892;28;101985;-72
2023/11/24 00:15:12;;;;;;;;;7.00;7.00;;;;;-143.90;100.00;74504.50;4920233;28;103273;-71
2023/11/24 00:17:39;;;;;;;;;10.50;7.50;;;;;-143.90;100.00;74516.91;4925354;28;101549;-71
2023/11/24 00:20:08;;;;;;;;;9.00;8.00;;;;;-143.90;100.00;74518.97;4922878;28;101589;-72
2023/11/24 00:22:34;;;;;;;;;8.00;8.00;;;;;-143.90;100.00;74510.72;4919357;28;101839;-71
2023/11/24 00:25:01;;;;;;;;;10.50;9.00;;;;;-143.90;100.00;74521.03;4921717;28;103522;-73
2023/11/24 00:27:28;;;;;;;;;9.00;8.00;;;;;-143.90;100.00;74518.97;4929675;28;102562;-71
2023/11/24 00:29:56;;;;;;;;;8.25;7.50;;;;;-143.90;100.00;74539.66;4929893;28;101897;-71
2023/11/24 00:32:23;;;;;;;;;9.00;7.00;;;;;-143.90;100.00;74535.50;4930697;28;102352;-70
2023/11/24 00:34:50;;;;;;;;;11.50;11.50;;;;;-143.90;100.00;74554.13;4923702;28;108092;-72
2023/11/24 00:37:17;;;;;;;;;12.25;11.00;;;;;-143.90;100.00;74558.25;4926126;28;101673;-72
2023/11/24 00:39:44;;;;;;;;;8.50;7.00;;;;;-143.90;100.00;74541.72;4923788;28;101469;-73
2023/11/24 00:42:10;;;;;;;;;10.25;9.75;;;;;-143.90;100.00;74554.13;4927988;28;101482;-72
2023/11/24 00:44:37;;;;;;;;;7.25;6.50;;;;;-143.90;100.00;74554.13;4924437;28;103566;-73
2023/11/24 00:47:04;;;;;;;;;10.75;10.00;;;;;-143.90;100.00;74570.66;4923824;28;101741;-72
2023/11/24 00:49:32;;;;;;;;;10.00;7.75;;;;;-143.90;100.00;74558.25;4924614;28;101993;-72
2023/11/24 00:51:58;;;;;;;;;13.00;10.75;;;;;-143.90;100.00;74572.72;4931070;28;101783;-73
2023/11/24 00:54:26;;;;;;;;;12.00;8.75;;;;;-143.90;100.00;74568.59;4928038;28;103370;-73
2023/11/24 00:56:52;;;;;;;;;7.25;6.75;;;;;-143.90;100.00;74574.78;4927480;28;102101;-69
2023/11/24 00:59:20;;;;;;;;;10.50;9.50;;;;;-143.90;100.00;74568.59;4929149;28;101541;-73
2023/11/24 01:01:47;;;;;;;;;8.75;7.25;;;;;-143.90;100.00;74562.38;4927493;28;101891;-71
2023/11/24 01:04:14;;;;;;;;;8.00;8.00;;;;;-143.90;100.00;74560.31;4922150;28;103161;-72
2023/11/24 01:06:40;;;;;;;;;10.25;8.00;;;;;-143.90;100.00;74576.84;4927858;28;101920;-72
2023/11/24 01:09:09;;;;;;;;;12.00;9.00;;;;;-143.90;100.00;74572.72;4924226;28;101697;-73
2023/11/24 01:11:36;;;;;;;;;10.25;8.25;;;;;-143.90;100.00;74585.13;4930647;28;102123;-72
2023/11/24 01:14:04;;;;;;;;;9.50;9.50;;;;;-143.90;100.00;74601.66;4940288;28;103440;-72
2023/11/24 01:16:31;;;;;;;;;12.00;12.00;;;;;-143.90;100.00;74609.94;4924534;28;101485;-72
2023/11/24 01:18:59;;;;;;;;;13.25;9.75;;;;;-143.90;100.00;74609.94;4926543;28;101498;-72
2023/11/24 01:21:26;;;;;;;;;9.50;8.00;;;;;-143.90;100.00;74626.47;4930516;28;101956;-72
2023/11/24 01:23:53;;;;;;;;;10.00;8.50;;;;;-143.90;100.00;74630.59;4926833;28;103537;-73
2023/11/24 01:26:19;;;;;;;;;11.00;8.00;;;;;-143.90;100.00;74634.72;4925056;28;101769;-73
2023/11/24 01:28:46;;;;;;;;;10.50;9.25;;;;;-143.90;100.00;74667.81;4922089;28;101618;-73
2023/11/24 01:31:12;;;;;;;;;10.00;8.00;;;;;-143.90;100.00;74686.41;4923339;28;101576;-72
2023/11/24 01:33:39;;;;;;;;;14.00;11.00;;;;;-143.90;100.00;74702.94;4925716;28;103622;-72
2023/11/24 01:36:07;;;;;;;;;11.75;11.50;;;;;-143.90;100.00;74696.75;4925484;28;102400;-73
2023/11/24 01:38:34;;;;;;;;;12.00;11.25;;;;;-143.90;100.00;74702.94;4922949;28;101772;-73
2023/11/24 01:41:00;;;;;;;;;11.00;10.00;;;;;-143.90;100.00;74690.53;4922221;28;101763;-72
2023/11/24 01:43:27;;;;;;;;;9.50;7.50;;;;;-143.90;100.00;74698.81;4924901;28;103540;-73
2023/11/24 01:45:54;;;;;;;;;9.50;8.50;;;;;-143.90;100.00;74700.88;4926789;28;101589;-72
2023/11/24 01:48:21;;;;;;;;;5.75;5.75;;;;;-143.90;100.00;74696.75;4924404;28;101546;-73
2023/11/24 01:50:48;;;;;;;;;7.50;6.75;;;;;-143.90;100.00;74709.16;4927166;28;101660;-72
2023/11/24 01:53:16;;;;;;;;;5.50;5.00;;;;;-143.90;100.00;74705.00;4925064;28;103529;-73
2023/11/24 01:55:43;;;;;;;;;2.25;2.25;;;;;-143.90;100.00;74709.16;4923446;28;101754;-73
2023/11/24 01:58:10;;;;;;;;;2.00;2.00;;;;;-143.90;100.00;74700.88;4924804;28;101635;-72
2023/11/24 02:00:38;;;;;;;;;1.25;1.00;;;;;-143.90;100.00;74709.16;4925254;28;102409;-72
2023/11/24 02:03:05;;;;;;;;;0.25;0.25;;;;;-143.90;100.00;74713.28;4925315;28;103466;-72
2023/11/24 02:05:32;;;;;;;;;0.00;0.00;;;;;-143.90;100.00;74707.09;4925901;28;101681;-72
2023/11/24 02:07:59;;;;;;;;;0.00;0.00;;;;;-143.90;100.00;74713.28;4922507;28;102946;-72
2023/11/24 02:10:26;;;;;;;;;1.00;0.00;;;;;-143.90;100.00;74705.00;4927492;28;102196;-72
2023/11/24 02:12:52;;;;;;;;;0.00;0.00;;;;;-143.90;100.00;74713.28;4929038;28;103445;-72
2023/11/24 02:15:19;;;;;;;;;2.00;0.75;;;;;-143.90;100.00;74717.41;4925093;28;101902;-72
2023/11/24 02:17:46;;;;;;;;;0.75;0.75;;;;;-143.90;100.00;74717.41;4923855;28;101877;-72
2023/11/24 02:20:15;;;;;;;;;1.00;0.50;;;;;-143.90;100.00;74715.34;4928178;28;102188;-72
2023/11/24 02:22:42;;;;;;;;;2.00;2.00;;;;;-143.90;100.00;74705.00;4936949;28;103388;-72
2023/11/24 02:25:11;;;;;;;;;1.25;1.25;;;;;-143.90;100.00;74690.53;4925010;28;101720;-74
2023/11/24 02:27:38;;;;;;;;;2.50;1.75;;;;;-143.90;100.00;74686.41;4923560;28;101755;-74
2023/11/24 02:30:05;;;;;;;;;1.00;1.00;;;;;-143.90;100.00;74684.34;4923785;28;102631;-73
2023/11/24 02:32:33;;;;;;;;;3.00;1.00;;;;;-143.90;100.00;74667.81;4924749;28;103445;-73
2023/11/24 02:35:02;;;;;;;;;0.00;0.00;;;;;-143.90;100.00;74665.75;4926292;28;101487;-72
2023/11/24 02:37:28;;;;;;;;;0.00;0.00;;;;;-143.90;100.00;74663.66;4925989;28;101800;-73
2023/11/24 02:39:55;;;;;;;;;0.00;0.00;;;;;-143.90;100.00;74667.81;4931396;28;102046;-71
2023/11/24 02:42:22;;;;;;;;;0.00;0.00;;;;;-143.90;100.00;74671.94;4925262;28;103523;-73
2023/11/24 02:44:49;;;;;;;;;0.00;0.00;;;;;-143.90;100.00;74688.47;4924755;28;102121;-71
2023/11/24 02:47:16;;;;;;;;;0.00;0.00;;;;;-143.90;100.00;74696.75;4923114;28;101475;-74
2023/11/24 02:49:42;;;;;;;;;0.25;0.00;;;;;-143.90;100.00;74721.56;4935605;28;102078;-72
2023/11/24 02:52:09;;;;;;;;;0.50;0.00;;;;;-143.90;100.00;74713.28;4939273;28;103152;-73
2023/11/24 02:54:36;;;;;;;;;0.00;0.00;;;;;-143.90;100.00;74702.94;4929807;28;102738;-74
2023/11/24 02:57:03;;;;;;;;;0.00;0.00;;;;;-143.90;100.00;74702.94;4924729;28;102510;-73
2023/11/24 02:59:30;;;;;;;;;0.00;0.00;;;;;-143.90;100.00;74713.28;4926317;28;101884;-73
2023/11/24 03:01:56;;;;;;;;;0.75;0.75;;;;;-143.90;100.00;74705.00;4926662;28;103431;-74
2023/11/24 03:04:23;;;;;;;;;1.00;0.00;;;;;-143.90;100.00;74692.63;4928245;28;101895;-73
2023/11/24 03:06:50;;;;;;;;;0.00;0.00;;;;;-143.90;100.00;74688.47;4926039;28;101825;-74
2023/11/24 03:09:22;;;;;;;;;0.00;0.00;;;;;-143.90;100.00;74692.63;4925375;28;101827;-73
2023/11/24 03:11:49;;;;;;;;;0.00;0.00;;;;;-143.90;100.00;74692.63;4925621;28;103767;-73
2023/11/24 03:14:16;;;;;;;;;0.00;0.00;;;;;-143.90;100.00;74694.69;4922418;28;101829;-74
2023/11/24 03:16:43;;;;;;;;;1.00;1.00;;;;;-143.90;100.00;74684.34;4928507;28;101771;-73
2023/11/24 03:19:09;;;;;;;;;0.00;0.00;;;;;-143.90;100.00;74692.63;4924301;28;101978;-73
2023/11/24 03:21:36;;;;;;;;;0.00;0.00;;;;;-143.90;100.00;74696.75;4922586;28;103532;-72
2023/11/24 03:24:03;;;;;;;;;0.00;0.00;;;;;-143.90;100.00;74688.47;4922967;28;101529;-72
2023/11/24 03:26:30;;;;;;;;;2.00;0.00;;;;;-143.90;100.00;74690.53;4924720;28;101585;-72
2023/11/24 03:28:57;;;;;;;;;0.00;0.00;;;;;-143.90;100.00;74671.94;4931410;28;102599;-72
2023/11/24 03:31:23;;;;;;;;;0.00;0.00;;;;;-143.90;100.00;74659.53;4941818;28;103399;-72
2023/11/24 03:33:50;;;;;;;;;1.00;1.00;;;;;-143.90;100.00;74640.94;4922031;28;101716;-73
2023/11/24 03:36:17;;;;;;;;;0.00;0.00;;;;;-143.90;100.00;74634.72;4926938;28;101848;-72
2023/11/24 03:38:43;;;;;;;;;1.00;0.00;;;;;-143.90;100.00;74636.81;4925209;28;102064;-73
2023/11/24 03:41:10;;;;;;;;;0.00;0.00;;;;;-143.90;100.00;74640.94;4927193;28;103393;-73
2023/11/24 03:43:37;;;;;;;;;0.00;0.00;;;;;-143.90;100.00;74636.81;4923445;28;102524;-72
2023/11/24 03:46:04;;;;;;;;;1.50;1.00;;;;;-143.90;100.00;74638.88;4924705;28;102004;-72
2023/11/24 03:48:31;;;;;;;;;0.00;0.00;;;;;-143.90;100.00;74626.47;4922777;28;101612;-73
2023/11/24 03:50:58;;;;;;;;;0.00;0.00;;;;;-143.90;100.00;74626.47;4924240;28;103613;-71
2023/11/24 03:53:25;;;;;;;;;1.75;1.00;;;;;-143.90;100.00;74634.72;4926188;28;102535;-72
2023/11/24 03:55:52;;;;;;;;;0.00;0.00;;;;;-143.90;100.00;74624.41;4926691;28;102539;-73
2023/11/24 03:58:18;;;;;;;;;0.00;0.00;;;;;-143.90;100.00;74618.19;4926867;28;101602;-73
2023/11/24 04:00:45;;;;;;;;;0.00;0.00;;;;;-143.90;100.00;74626.47;4928109;28;103574;-72
2023/11/24 04:03:12;;;;;;;;;0.00;0.00;;;;;-143.90;100.00;74618.19;4922623;28;101900;-73
2023/11/24 04:05:39;;;;;;;;;0.50;0.00;;;;;-143.90;100.00;74620.25;4926186;28;101763;-73
2023/11/24 04:08:05;;;;;;;;;0.00;0.00;;;;;-143.90;100.00;74614.06;4924481;28;101741;-72
2023/11/24 04:10:32;;;;;;;;;0.00;0.00;;;;;-143.90;100.00;74626.47;4924828;28;103426;-72
2023/11/24 04:12:58;;;;;;;;;0.00;0.00;;;;;-143.90;100.00;74618.19;4922362;28;101771;-72
2023/11/24 04:15:25;;;;;;;;;0.00;0.00;;;;;-143.90;100.00;74622.34;4926492;28;101858;-71
2023/11/24 04:17:52;;;;;;;;;0.00;0.00;;;;;-143.90;100.00;74609.94;4923543;28;101595;-73
2023/11/24 04:20:19;;;;;;;;;1.25;0.00;;;;;-143.90;100.00;74605.78;4925032;28;107969;-72
2023/11/24 04:22:46;;;;;;;;;0.00;0.00;;;;;-143.90;100.00;74609.94;4921470;28;101950;-72
2023/11/24 04:25:14;;;;;;;;;0.00;0.00;;;;;-143.90;100.00;74609.94;4925153;28;102685;-71
2023/11/24 04:27:41;;;;;;;;;0.50;0.00;;;;;-143.90;100.00;74593.38;4920664;28;102648;-72
2023/11/24 04:30:08;;;;;;;;;1.00;0.25;;;;;-143.90;100.00;74597.53;4926228;28;103435;-73
2023/11/24 04:32:35;;;;;;;;;0.25;0.00;;;;;-143.90;100.00;74599.59;4924068;28;101734;-73
2023/11/24 04:35:02;;;;;;;;;0.00;0.00;;;;;-143.90;100.00;74605.78;4925361;28;101605;-73
2023/11/24 04:37:29;;;;;;;;;0.00;0.00;;;;;-143.90;100.00;74599.59;4925680;28;101624;-73
2023/11/24 04:39:57;;;;;;;;;0.00;0.00;;;;;-143.90;100.00;74585.13;4924612;28;103364;-72
2023/11/24 04:42:25;;;;;;;;;0.00;0.00;;;;;-143.90;100.00;74554.13;4923290;28;101469;-72
2023/11/24 04:44:53;;;;;;;;;0.00;0.00;;;;;-143.90;100.00;74576.84;4925061;28;101772;-72
2023/11/24 04:47:20;;;;;;;;;0.00;0.00;;;;;-143.90;100.00;74581.00;4917891;28;101628;-71
2023/11/24 04:49:47;;;;;;;;;1.00;0.00;;;;;-143.90;100.00;74570.66;4924267;28;103412;-72
2023/11/24 04:52:13;;;;;;;;;0.25;0.25;;;;;-143.90;100.00;74570.66;4928269;28;101980;-72
2023/11/24 04:54:40;;;;;;;;;1.00;1.00;;;;;-143.90;100.00;74566.53;4918902;28;101605;-72
2023/11/24 04:57:09;;;;;;;;;1.75;1.00;;;;;-143.90;100.00;74572.72;4914869;28;101890;-72
2023/11/24 04:59:41;;;;;;;;;1.00;1.00;;;;;-143.90;100.00;74578.91;4919433;28;103553;-72
2023/11/24 05:02:08;;;;;;;;;1.00;0.00;;;;;-143.90;100.00;74576.84;4920490;28;101890;-72
2023/11/24 05:04:38;;;;;;;;;0.00;0.00;;;;;-143.90;100.00;74585.13;4926142;28;101711;-73
2023/11/24 05:07:05;;;;;;;;;1.00;1.00;;;;;-143.90;100.00;74593.38;4920787;28;101617;-72
2023/11/24 05:09:32;;;;;;;;;0.00;0.00;;;;;-143.90;100.00;74593.38;4923192;28;104320;-72
2023/11/24 05:11:59;;;;;;;;;0.25;0.00;;;;;-143.90;100.00;74595.47;4925221;28;102967;-73
2023/11/24 05:14:25;;;;;;;;;1.75;0.25;;;;;-143.90;97.35;74601.66;4927947;28;101865;-70
2023/11/24 05:16:52;;;;;;;;;0.25;0.25;;;;;-143.90;100.00;74612.00;4929065;28;101609;-72
2023/11/24 05:19:19;;;;;;;;;0.00;0.00;;;;;-143.90;98.06;74628.53;4926355;28;103296;-71
2023/11/24 05:21:46;;;;;;;;;0.00;0.00;;;;;-143.90;94.44;74632.66;4926829;28;101619;-72
2023/11/24 05:24:12;;;;;;;;;0.25;0.00;;;;;-143.90;93.30;74651.28;4929092;28;102509;-73
2023/11/24 05:26:39;;;;;;;;;0.75;0.75;;;;;-143.90;94.18;74659.53;4940497;28;101937;-72
2023/11/24 05:29:05;;;;;;;;;0.00;0.00;;;;;-143.90;96.05;74676.06;4925532;28;103358;-71
2023/11/24 05:31:32;;;;;;;;;0.00;0.00;;;;;-143.90;97.61;74678.16;4922802;28;102317;-71
2023/11/24 05:33:59;;;;;;;;;0.00;0.00;;;;;-143.90;98.74;74698.81;4927680;28;101505;-71
2023/11/24 05:36:27;;;;;;;;;1.00;1.00;;;;;-143.90;100.00;74709.16;4922875;28;101663;-71
2023/11/24 05:38:54;;;;;;;;;0.50;0.50;;;;;-143.90;100.00;74713.28;4932383;28;103354;-71
2023/11/24 05:41:21;;;;;;;;;1.50;1.00;;;;;-143.90;100.00;74725.69;4924373;28;102670;-73
2023/11/24 05:43:48;;;;;;;;;2.00;1.25;;;;;-143.90;100.00;74727.75;4929584;28;101649;-73
2023/11/24 05:46:15;;;;;;;;;1.75;1.75;;;;;-143.90;100.00;74729.81;4926858;28;102351;-72
2023/11/24 05:48:41;;;;;;;;;2.00;1.00;;;;;-143.90;100.00;74738.09;4930175;28;103344;-72
2023/11/24 05:51:08;;;;;;;;;1.75;1.00;;;;;-143.90;100.00;74750.50;4924241;28;102771;-72
2023/11/24 05:53:35;;;;;;;;;2.00;2.00;;;;;-143.90;100.00;74760.81;4925474;28;101620;-73
2023/11/24 05:56:05;;;;;;;;;1.00;1.00;;;;;-143.90;100.00;74771.16;4926229;28;101957;-73
2023/11/24 05:58:33;;;;;;;;;1.25;1.00;;;;;-143.90;100.00;74777.38;4928611;28;103521;-72
2023/11/24 06:01:00;;;;;;;;;1.25;1.00;;;;;-143.90;100.00;74787.69;4925229;28;101669;-72
2023/11/24 06:03:27;;;;;;;;;0.50;0.50;;;;;-143.90;100.00;74800.09;4929710;28;101658;-73
2023/11/24 06:05:53;;;;;;;;;1.50;1.00;;;;;-143.90;100.00;74804.25;4930407;28;101670;-72
2023/11/24 06:08:20;;;;;;;;;1.75;1.75;;;;;-143.90;100.00;74798.03;4928518;28;108130;-73
2023/11/24 06:10:47;;;;;;;;;3.75;2.50;;;;;-143.90;100.00;74800.09;4927085;28;101951;-72
2023/11/24 06:13:14;;;;;;;;;1.50;1.50;;;;;-143.90;100.00;74802.16;4929160;28;101582;-71
2023/11/24 06:15:41;;;;;;;;;1.50;1.50;;;;;-143.90;100.00;74806.31;4926462;28;101828;-72
2023/11/24 06:18:07;;;;;;;;;5.00;2.25;;;;;-143.90;100.00;74820.78;4926914;28;103407;-73
2023/11/24 06:20:34;;;;;;;;;2.75;2.00;;;;;-143.90;100.00;74816.66;4924071;28;101657;-72
2023/11/24 06:23:01;;;;;;;;;2.00;2.00;;;;;-143.90;100.00;74814.56;4924303;28;101949;-72
2023/11/24 06:25:28;;;;;;;;;3.00;2.75;;;;;-143.90;100.00;74812.50;4924776;28;102029;-72
2023/11/24 06:27:55;;;;;;;;;2.00;2.00;;;;;-143.90;100.00;74820.78;4925589;28;103468;-72
2023/11/24 06:30:22;;;;;;;;;2.75;2.00;;;;;-143.90;100.00;74829.03;4926329;28;101800;-72
2023/11/24 06:32:48;;;;;;;;;4.50;3.00;;;;;-143.90;100.00;74835.25;4926915;28;101513;-73
2023/11/24 06:35:15;;;;;;;;;7.00;6.25;;;;;-143.90;100.00;74841.44;4927016;28;102585;-72
2023/11/24 06:37:42;;;;;;;;;5.00;2.75;;;;;-143.90;100.00;74860.06;4928786;28;103629;-72
2023/11/24 06:40:13;;;;;;;;;9.00;5.75;;;;;-143.90;100.00;74866.25;4923285;28;102563;-72
2023/11/24 06:42:41;;;;;;;;;10.50;8.00;;;;;-143.90;100.00;74880.72;4923823;28;101934;-73
2023/11/24 06:45:09;;;;;;;;;6.50;5.00;;;;;-143.90;100.00;74878.66;4927738;28;102605;-72
2023/11/24 06:47:39;;;;;;;;;7.75;5.50;;;;;-143.90;100.00;74876.59;4928645;28;103356;-71
2023/11/24 06:50:12;;;;;;;;;8.00;6.50;;;;;-143.90;100.00;74891.06;4925408;28;102311;-72
2023/11/24 06:52:40;;;;;;;;;4.00;3.00;;;;;-143.90;100.00;74907.59;4926330;28;102702;-72
2023/11/24 06:55:07;;;;;;;;;10.25;7.50;;;;;-143.90;100.00;74911.72;4939663;28;101640;-72
2023/11/24 06:57:33;;;;;;;;;13.25;11.00;;;;;-143.90;100.00;74913.81;4929679;28;103342;-72
2023/11/24 07:00:00;;;;;;;;;20.75;17.00;;;;;-143.90;100.00;74911.72;4924607;28;101969;-72
2023/11/24 07:02:28;;;;;;;;;17.75;11.25;;;;;-143.90;100.00;74924.13;4927571;28;101538;-71
2023/11/24 07:04:54;;;;;;;;;9.00;6.25;;;;;-143.90;100.00;74924.13;4928699;28;102793;-72
2023/11/24 07:07:21;;;;;;;;;2.75;2.75;;;;;-143.90;100.00;74911.72;4926475;28;108296;-72
2023/11/24 07:09:48;;;;;;;;;6.00;6.00;;;;;-143.90;100.00;74893.13;4922238;28;102087;-73
2023/11/24 07:12:17;;;;;;;;;6.00;5.75;;;;;-143.90;100.00;74886.94;4925125;28;101873;-72
2023/11/24 07:14:45;;;;;;;;;5.50;3.50;;;;;-143.90;100.00;74874.53;4928411;28;102935;-71
2023/11/24 07:17:12;;;;;;;;;11.25;6.75;;;;;-143.90;100.00;74878.66;4927860;28;103385;-72
2023/11/24 07:19:40;;;;;;;;;9.00;6.00;;;;;-143.90;100.00;74866.25;4925893;28;101853;-73
2023/11/24 07:22:08;;;;;;;;;6.75;6.00;;;;;-143.90;100.00;74855.91;4924314;28;101906;-73
2023/11/24 07:24:38;;;;;;;;;7.75;6.50;;;;;-143.90;100.00;74839.38;4924270;28;101613;-73
2023/11/24 07:27:05;;;;;;;;;9.00;6.75;;;;;-143.90;100.00;74835.25;4927348;28;103810;-73
2023/11/24 07:29:35;;;;;;;;;7.00;6.00;;;;;-143.90;100.00;74820.78;4925920;28;102013;-72
2023/11/24 07:32:02;;;;;;;;;6.50;6.00;;;;;-143.90;100.00;74820.78;4923468;28;101522;-72
2023/11/24 07:34:32;;;;;;;;;8.00;4.00;;;;;-143.90;100.00;74806.31;4926657;28;101897;-72
2023/11/24 07:37:02;;;;;;;;;5.25;5.00;;;;;-143.90;100.00;74804.25;4923818;28;104094;-72
2023/11/24 07:39:30;;;;;;;;;7.00;5.00;;;;;-143.90;100.00;74795.97;4926314;28;102084;-72
2023/11/24 07:41:59;;;;;;;;;6.00;5.00;;;;;-143.90;100.00;74791.84;4926534;28;101690;-72
2023/11/24 07:44:29;;;;;;;;;7.25;6.00;;;;;-143.90;100.00;74783.56;4924003;28;101611;-71
2023/11/24 07:46:55;;;;;;;;;6.00;6.00;;;;;-143.90;100.00;74771.16;4926173;28;103528;-73
2023/11/24 07:49:22;;;;;;;;;6.00;3.00;;;;;-143.90;100.00;74764.97;4922515;28;101862;-72
2023/11/24 07:51:49;;;;;;;;;2.00;2.00;;;;;-143.90;100.00;74746.34;4928020;28;101464;-72
2023/11/24 07:54:16;;;;;;;;;7.50;7.00;;;;;-143.90;100.00;74742.22;4924718;28;101605;-72
2023/11/24 07:56:43;;;;;;;;;8.00;6.25;;;;;-143.90;100.00;74748.44;4927798;28;103427;-73
2023/11/24 07:59:11;;;;;;;;;9.50;6.00;;;;;-143.90;100.00;74746.34;4921859;28;101911;-73
2023/11/24 08:01:39;;;;;;;;;5.50;5.50;;;;;-143.90;100.00;74764.97;4936236;28;101918;-72
2023/11/24 08:04:07;;;;;;;;;5.75;4.50;;;;;-143.90;100.00;74754.63;4924740;28;101678;-72
2023/11/24 08:06:34;;;;;;;;;6.25;5.25;;;;;-143.90;100.00;74758.75;4922582;28;103837;-72
2023/11/24 08:09:03;;;;;;;;;6.50;5.00;;;;;-143.90;100.00;74754.63;4925706;28;101711;-72
2023/11/24 08:11:31;;;;;;;;;6.75;5.00;;;;;-143.90;100.00;74758.75;4925574;28;102100;-73
2023/11/24 08:13:58;;;;;;;;;6.00;5.00;;;;;-143.90;100.00;74756.69;4923284;28;101980;-72
2023/11/24 08:16:25;;;;;;;;;7.25;5.50;;;;;-143.90;100.00;74742.22;4927659;28;103499;-73
2023/11/24 08:18:52;;;;;;;;;4.50;3.50;;;;;-143.90;100.00;74748.44;4925465;28;101613;-73
2023/11/24 08:21:19;;;;;;;;;2.75;1.00;;;;;-143.90;100.00;74748.44;4926017;28;101820;-72
2023/11/24 08:23:46;;;;;;;;;7.00;5.25;;;;;-143.90;100.00;74729.81;4923757;28;102021;-72
2023/11/24 08:26:18;;;;;;;;;6.25;3.00;;;;;-143.90;100.00;74721.56;4927058;28;103562;-73
2023/11/24 08:28:45;;;;;;;;;4.75;3.00;;;;;-143.90;100.00;74717.41;4920648;28;102254;-73
2023/11/24 08:31:20;;;;;;;;;5.25;2.50;;;;;-143.90;100.00;74717.41;4924700;28;101863;-72
2023/11/24 08:33:48;;;;;;;;;6.25;6.00;;;;;-143.90;100.00;74696.75;4927733;28;102138;-72
2023/11/24 08:36:15;;;;;;;;;5.00;5.00;;;;;-143.90;100.00;74678.16;4927120;28;103353;-72
2023/11/24 08:38:42;;;;;;;;;14.00;7.00;;;;;-143.90;100.00;74663.66;4922485;28;101543;-72
2023/11/24 08:41:14;;;;;;;;;5.25;5.00;;;;;-143.90;100.00;74651.28;4923518;28;101694;-72
2023/11/24 08:44:00;;;;;;;;;6.50;5.00;;;;;-143.90;100.00;74667.81;4921226;28;101651;-73
2023/11/24 08:46:26;;;;;;;;;10.25;5.00;;;;;-143.90;100.00;74651.28;4925369;28;103194;-73
2023/11/24 08:48:54;;;;;;;;;5.00;2.50;;;;;-143.90;100.00;74653.34;4925522;28;101843;-73
2023/11/24 08:51:21;;;;;;;;;2.75;2.00;;;;;-143.90;100.00;74655.41;4924697;28;103212;-73
2023/11/24 08:53:48;;;;;;;;;2.75;2.00;;;;;-143.90;100.00;74667.81;4923729;28;101675;-72
2023/11/24 08:56:14;;;;;;;;;3.50;3.00;;;;;-143.90;100.00;74659.53;4920928;28;103585;-72
2023/11/24 08:58:41;;;;;;;;;2.50;2.00;;;;;-143.90;99.96;74665.75;4922469;28;101783;-73
2023/11/24 09:01:12;;;;;;;;;2.00;2.00;;;;;-143.90;98.64;74636.81;4925776;28;101557;-72
2023/11/24 09:03:39;;;;;;;;;3.00;3.00;;;;;-143.90;99.94;74643.00;4922136;28;101838;-72
2023/11/24 09:06:06;;;;;;;;;3.50;3.50;;;;;-143.90;98.96;74643.00;4923438;28;103523;-72
2023/11/24 09:08:33;;;;;;;;;6.50;3.50;;;;;-143.90;100.00;74626.47;4922246;28;101760;-73
2023/11/24 09:10:59;;;;;;;;;5.00;2.75;;;;;-143.90;98.20;74630.59;4925665;28;101702;-73
2023/11/24 09:13:26;;;;;;;;;2.25;1.00;;;;;-143.90;96.99;74663.66;4925483;28;101652;-71
2023/11/24 09:15:53;;;;;;;;;1.50;1.50;;;;;-143.90;98.57;74663.66;4930910;28;103426;-71
2023/11/24 09:18:21;;;;;;;;;4.00;2.75;;;;;-143.90;98.74;74634.72;4922096;28;102055;-73
2023/11/24 09:20:48;;;;;;;;;2.25;1.00;;;;;-143.90;98.09;74634.72;4927542;28;101790;-73
2023/11/24 09:23:15;;;;;;;;;1.50;1.00;;;;;-143.90;97.78;74618.19;4923244;28;107446;-72
2023/11/24 09:25:41;;;;;;;;;1.50;1.50;;;;;-143.90;97.98;74645.06;4926985;28;103342;-73
2023/11/24 09:28:09;;;;;;;;;1.50;1.00;;;;;-143.90;99.67;74626.47;4926187;28;103253;-74
2023/11/24 09:30:36;;;;;;;;;5.75;3.00;;;;;-143.90;98.09;74624.41;4927632;28;102516;-73
2023/11/24 09:33:04;;;;;;;;;3.00;2.00;;;;;-143.90;98.76;74630.59;4926932;28;101742;-73
2023/11/24 09:35:31;;;;;;;;;2.25;1.75;;;;;-143.90;99.79;74638.88;4926902;28;103723;-73
2023/11/24 09:37:57;;;;;;;;;2.75;2.00;;;;;-143.90;97.95;74645.06;4922908;28;101965;-72
2023/11/24 09:40:26;;;;;;;;;2.00;2.00;;;;;-143.90;97.20;74643.00;4931405;28;101675;-74
2023/11/24 09:42:52;;;;;;;;;5.00;2.25;;;;;-143.90;96.11;74632.66;4926386;28;102006;-72
2023/11/24 09:45:22;;;;;;;;;0.75;0.75;;;;;-143.90;97.21;74640.94;4925850;28;103501;-72
2023/11/24 09:47:51;;;;;;;;;3.00;2.00;;;;;-143.90;97.28;74626.47;4921822;28;101674;-73
2023/11/24 09:50:23;;;;;;;;;4.00;2.00;;;;;-143.90;97.81;74622.34;4926005;28;102001;-73
2023/11/24 09:52:54;;;;;;;;;2.00;1.00;;;;;-143.90;97.36;74597.53;4929609;28;101835;-72
2023/11/24 09:55:25;;;;;;;;;7.75;6.00;;;;;-143.90;98.29;74593.38;4925593;28;108023;-73
2023/11/24 09:57:55;;;;;;;;;7.00;3.00;;;;;-143.90;97.90;74589.25;4919539;28;102046;-74
2023/11/24 10:00:25;;;;;;;;;3.50;2.75;;;;;-143.90;97.25;74581.00;4923659;28;101863;-73
2023/11/24 10:02:57;;;;;;;;;2.00;1.25;;;;;-143.90;97.84;74585.13;4920559;28;102684;-75
2023/11/24 10:05:26;;;;;;;;;2.00;1.25;;;;;-143.90;98.48;74599.59;4923048;28;108078;-74
2023/11/24 10:07:54;;;;;;;;;3.00;1.50;;;;;-143.90;98.26;74572.72;4922614;28;102725;-73
2023/11/24 10:10:22;;;;;;;;;4.50;4.00;;;;;-143.90;97.71;74589.25;4921574;28;101826;-72
2023/11/24 10:12:52;;;;;;;;;2.00;2.00;;;;;-143.90;97.69;74576.84;4921786;28;102920;-74
2023/11/24 10:15:22;;;;;;;;;3.00;2.25;;;;;-143.90;98.00;74560.31;4924240;28;103404;-73
2023/11/24 10:17:49;;;;;;;;;6.00;2.75;;;;;-143.90;96.61;74543.78;4927051;28;101973;-73
2023/11/24 10:20:18;;;;;;;;;3.25;2.00;;;;;-143.90;96.92;74543.78;4924310;28;101619;-73
2023/11/24 10:22:49;;;;;;;;;2.25;2.25;;;;;-143.90;97.22;74514.84;4919140;28;108675;-75
2023/11/24 10:25:20;;;;;;;;;2.50;2.50;;;;;-143.90;96.45;74502.44;4929973;28;103601;-72
2023/11/24 10:27:47;;;;;;;;;1.75;1.00;;;;;-143.90;93.76;74504.50;4923253;28;101599;-72
2023/11/24 10:30:14;;;;;;;;;5.00;2.00;;;;;-143.90;94.89;74498.31;4930539;28;101619;-72
2023/11/24 10:32:43;;;;;;;;;3.00;2.00;;;;;-143.90;94.49;74475.56;4925593;28;102017;-73
2023/11/24 10:35:12;;;;;;;;;1.75;1.00;;;;;-143.90;93.86;74481.78;4926400;28;103360;-73
2023/11/24 10:37:44;;;;;;;;;2.50;2.00;;;;;-143.90;95.13;74498.31;4922160;28;101885;-73
2023/11/24 10:40:17;;;;;;;;;1.00;1.00;;;;;-143.90;93.86;74494.16;4924697;28;102030;-74
2023/11/24 10:42:47;;;;;;;;;1.00;1.00;;;;;-143.90;94.77;74494.16;4929221;28;102022;-73
2023/11/24 10:45:19;;;;;;;;;2.00;1.75;;;;;-143.90;95.28;74518.97;4929216;28;103417;-73
2023/11/24 10:47:57;;;;;;;;;2.50;1.50;;;;;-143.90;94.77;74516.91;4922944;28;101545;-73
2023/11/24 10:50:27;;;;;;;;;4.00;3.50;;;;;-143.90;94.68;74512.78;4927163;28;101540;-73
2023/11/24 10:53:09;;;;;;;;;3.00;2.00;;;;;-143.90;95.42;74479.69;4928666;28;102213;-73
2023/11/24 10:55:38;;;;;;;;;1.00;1.00;;;;;-143.90;91.72;74452.84;4924310;28;107686;-73
2023/11/24 10:58:05;;;;;;;;;2.00;1.00;;;;;-143.90;93.88;74403.22;4928427;28;101508;-73
2023/11/24 11:00:32;;;;;;;;;1.00;1.00;;;;;-143.90;91.41;74359.81;4925953;28;101721;-72
2023/11/24 11:03:00;;;;;;;;;3.00;1.75;;;;;-143.90;87.67;74370.16;4924906;28;101935;-72